Time;durP1;ratioP1;P1;durP2;ratioP2;P2;SDS_P1;SDS_P2;PMS_P1;PMS_P2;Temp;Humidity;BMP_temperature;BMP_pressure;BME280_temperature;BME280_humidity;BME280_pressure;Samples;Min_cycle;Max_cycle;Signal;HPM_P1;HPM_P2
2022/09/28 00:02:08;;;;;;;;;;;;;;;;;;4776392;29;19980;-84
2022/09/28 00:04:52;;;;;;;;;;;;;;;;;;4769799;29;20027;-84
2022/09/28 00:07:18;;;;;;;;;;;;;;;;;;4787276;29;21023;-84
2022/09/28 00:09:51;;;;;;;;;;;;;;;;;;4811017;29;20325;-84
2022/09/28 00:12:20;;;;;;;;;;;;;;;;;;4794046;29;19928;-84
2022/09/28 00:14:50;;;;;;;;;;;;;;;;;;4811553;29;20542;-84
2022/09/28 00:17:21;;;;;;;;;;;;;;;;;;4810642;29;19979;-84
2022/09/28 00:19:58;;;;;;;;;;;;;;;;;;4824657;29;19932;-84
2022/09/28 00:22:28;;;;;;;;;;;;;;;;;;4792397;29;20415;-84
2022/09/28 00:24:55;;;;;;;;;;;;;;;;;;4785237;29;19979;-84
2022/09/28 00:27:21;;;;;;;;;;;;;;;;;;4792818;29;19939;-84
2022/09/28 00:29:53;;;;;;;;;;;;;;;;;;4801667;29;19932;-84
2022/09/28 00:32:23;;;;;;;;;;;;;;;;;;4799467;29;19939;-84
2022/09/28 00:34:53;;;;;;;;;;;;;;;;;;4801459;29;19923;-84
2022/09/28 00:37:21;;;;;;;;;;;;;;;;;;4788548;29;20261;-84
2022/09/28 00:39:48;;;;;;;;;;;;;;;;;;4785181;29;19932;-84
2022/09/28 00:42:34;;;;;;;;;;;;;;;;;;4811929;29;19987;-84
2022/09/28 00:45:17;;;;;;;;;;;;;;;;;;4773808;29;19936;-84
2022/09/28 00:47:48;;;;;;;;;;;;;;;;;;4770785;29;19935;-84
2022/09/28 00:50:19;;;;;;;;;;;;;;;;;;4771103;29;20182;-84
2022/09/28 00:52:49;;;;;;;;;;;;;;;;;;4762275;29;19928;-84
2022/09/28 00:55:22;;;;;;;;;;;;;;;;;;4798420;29;19933;-84
2022/09/28 00:57:54;;;;;;;;;;;;;;;;;;4763325;29;19931;-84
2022/09/28 01:00:27;;;;;;;;;;;;;;;;;;4784876;29;20180;-84
2022/09/28 01:02:55;;;;;;;;;;;;;;;;;;4780814;29;19935;-84
2022/09/28 01:05:21;;;;;;;;;;;;;;;;;;4767676;29;19963;-84
2022/09/28 01:07:51;;;;;;;;;;;;;;;;;;4778097;29;20482;-84
2022/09/28 01:10:30;;;;;;;;;;;;;;;;;;4794861;29;19933;-85
2022/09/28 01:13:07;;;;;;;;;;;;;;;;;;4754047;29;20085;-84
2022/09/28 01:15:33;;;;;;;;;;;;;;;;;;4778453;29;19932;-84
2022/09/28 01:18:03;;;;;;;;;;;;;;;;;;4835282;29;19982;-84
2022/09/28 01:20:30;;;;;;;;;;;;;;;;;;4825934;29;19936;-84
2022/09/28 01:22:57;;;;;;;;;;;;;;;;;;4822127;29;19939;-84
2022/09/28 01:25:24;;;;;;;;;;;;;;;;;;4808304;29;19931;-84
2022/09/28 01:27:58;;;;;;;;;;;;;;;;;;4808234;29;19935;-84
2022/09/28 01:30:24;;;;;;;;;;;;;;;;;;4833540;29;21066;-84
2022/09/28 01:32:53;;;;;;;;;;;;;;;;;;4820445;29;20032;-84
2022/09/28 01:35:20;;;;;;;;;;;;;;;;;;4812261;29;20398;-84
2022/09/28 01:37:57;;;;;;;;;;;;;;;;;;4840474;29;20007;-84
2022/09/28 01:40:24;;;;;;;;;;;;;;;;;;4824643;29;19930;-84
2022/09/28 01:42:50;;;;;;;;;;;;;;;;;;4791924;29;21199;-84
2022/09/28 01:45:20;;;;;;;;;;;;;;;;;;4820264;29;20584;-84
2022/09/28 01:47:47;;;;;;;;;;;;;;;;;;4807504;29;19932;-83
2022/09/28 01:50:15;;;;;;;;;;;;;;;;;;4827517;29;19928;-84
2022/09/28 01:52:41;;;;;;;;;;;;;;;;;;4806009;29;19932;-84
2022/09/28 01:55:07;;;;;;;;;;;;;;;;;;4807596;29;19940;-84
2022/09/28 01:57:44;;;;;;;;;;;;;;;;;;4804960;29;19932;-84
2022/09/28 02:00:20;;;;;;;;;;;;;;;;;;4806833;29;19936;-84
2022/09/28 02:02:56;;;;;;;;;;;;;;;;;;4786704;29;20741;-84
2022/09/28 02:05:23;;;;;;;;;;;;;;;;;;4777706;29;20338;-84
2022/09/28 02:07:54;;;;;;;;;;;;;;;;;;4789872;29;19940;-84
2022/09/28 02:10:23;;;;;;;;;;;;;;;;;;4795540;29;19955;-84
2022/09/28 02:12:51;;;;;;;;;;;;;;;;;;4773096;29;19944;-83
2022/09/28 02:15:33;;;;;;;;;;;;;;;;;;4754365;29;19926;-84
2022/09/28 02:18:21;;;;;;;;;;;;;;;;;;4763163;29;19940;-84
2022/09/28 02:20:48;;;;;;;;;;;;;;;;;;4756999;29;20024;-84
2022/09/28 02:23:22;;;;;;;;;;;;;;;;;;4760005;29;19937;-83
2022/09/28 02:25:48;;;;;;;;;;;;;;;;;;4753748;29;19969;-84
2022/09/28 02:28:17;;;;;;;;;;;;;;;;;;4809435;29;20480;-84
2022/09/28 02:30:44;;;;;;;;;;;;;;;;;;4796703;29;19939;-84
2022/09/28 02:33:30;;;;;;;;;;;;;;;;;;4816239;29;19948;-83
2022/09/28 02:36:09;;;;;;;;;;;;;;;;;;4803602;29;19989;-83
2022/09/28 02:38:54;;;;;;;;;;;;;;;;;;4815939;29;19936;-84
2022/09/28 02:41:20;;;;;;;;;;;;;;;;;;4776584;29;19933;-84
2022/09/28 02:43:46;;;;;;;;;;;;;;;;;;4814274;29;20510;-84
2022/09/28 02:46:14;;;;;;;;;;;;;;;;;;4785443;29;19936;-84
2022/09/28 02:48:44;;;;;;;;;;;;;;;;;;4801941;29;19939;-84
2022/09/28 02:51:29;;;;;;;;;;;;;;;;;;4830495;29;20728;-83
2022/09/28 02:53:56;;;;;;;;;;;;;;;;;;4806080;29;19971;-84
2022/09/28 02:56:23;;;;;;;;;;;;;;;;;;4812189;29;20269;-84
2022/09/28 02:58:50;;;;;;;;;;;;;;;;;;4798805;29;19928;-84
2022/09/28 03:01:21;;;;;;;;;;;;;;;;;;4823552;29;20064;-84
2022/09/28 03:03:51;;;;;;;;;;;;;;;;;;4818395;29;19940;-84
2022/09/28 03:06:25;;;;;;;;;;;;;;;;;;4810718;29;20094;-84
2022/09/28 03:08:52;;;;;;;;;;;;;;;;;;4804602;29;19992;-83
2022/09/28 03:11:18;;;;;;;;;;;;;;;;;;4821619;29;20690;-84
2022/09/28 03:13:46;;;;;;;;;;;;;;;;;;4791471;29;19939;-84
2022/09/28 03:16:12;;;;;;;;;;;;;;;;;;4795686;29;19936;-84
2022/09/28 03:18:38;;;;;;;;;;;;;;;;;;4816105;29;24488;-84
2022/09/28 03:21:04;;;;;;;;;;;;;;;;;;4819767;29;19932;-84
2022/09/28 03:23:31;;;;;;;;;;;;;;;;;;4807095;29;19985;-84
2022/09/28 03:26:21;;;;;;;;;;;;;;;;;;4829466;29;19931;-84
2022/09/28 03:28:48;;;;;;;;;;;;;;;;;;4823249;29;20395;-84
2022/09/28 03:31:16;;;;;;;;;;;;;;;;;;4823028;29;19932;-83
2022/09/28 03:33:43;;;;;;;;;;;;;;;;;;4806828;29;20030;-84
2022/09/28 03:36:13;;;;;;;;;;;;;;;;;;4826042;29;19928;-83
2022/09/28 03:38:42;;;;;;;;;;;;;;;;;;4817448;29;19932;-84
2022/09/28 03:41:16;;;;;;;;;;;;;;;;;;4837909;29;20030;-84
2022/09/28 03:43:55;;;;;;;;;;;;;;;;;;4823515;29;19939;-84
2022/09/28 03:46:22;;;;;;;;;;;;;;;;;;4806290;29;19962;-84
2022/09/28 03:48:53;;;;;;;;;;;;;;;;;;4810741;29;19931;-84
2022/09/28 03:51:19;;;;;;;;;;;;;;;;;;4823284;29;19996;-84
2022/09/28 03:53:52;;;;;;;;;;;;;;;;;;4812821;29;19935;-84
2022/09/28 03:56:29;;;;;;;;;;;;;;;;;;4840200;29;19979;-84
2022/09/28 03:59:01;;;;;;;;;;;;;;;;;;4818076;29;19935;-84
2022/09/28 04:01:42;;;;;;;;;;;;;;;;;;4752435;29;20328;-83
2022/09/28 04:04:28;;;;;;;;;;;;;;;;;;4761218;29;19936;-83
2022/09/28 04:06:55;;;;;;;;;;;;;;;;;;4762335;29;19933;-83
2022/09/28 04:09:21;;;;;;;;;;;;;;;;;;4752781;29;23828;-83
2022/09/28 04:11:48;;;;;;;;;;;;;;;;;;4743760;29;19933;-83
2022/09/28 04:14:15;;;;;;;;;;;;;;;;;;4753361;29;20020;-83
2022/09/28 04:16:46;;;;;;;;;;;;;;;;;;4752795;29;19939;-84
2022/09/28 04:19:17;;;;;;;;;;;;;;;;;;4765458;29;19940;-83
2022/09/28 04:21:43;;;;;;;;;;;;;;;;;;4761608;29;20790;-83
2022/09/28 04:24:11;;;;;;;;;;;;;;;;;;4773660;29;19929;-83
2022/09/28 04:26:45;;;;;;;;;;;;;;;;;;4762225;29;19933;-83
2022/09/28 04:29:22;;;;;;;;;;;;;;;;;;4748950;29;20313;-84
2022/09/28 04:32:00;;;;;;;;;;;;;;;;;;4769276;29;20416;-84
2022/09/28 04:34:27;;;;;;;;;;;;;;;;;;4802544;29;20225;-84
2022/09/28 04:37:14;;;;;;;;;;;;;;;;;;4818361;29;19939;-83
2022/09/28 04:39:50;;;;;;;;;;;;;;;;;;4801262;29;19932;-83
2022/09/28 04:42:17;;;;;;;;;;;;;;;;;;4804067;29;19937;-84
2022/09/28 04:44:46;;;;;;;;;;;;;;;;;;4818935;29;19934;-84
2022/09/28 04:47:12;;;;;;;;;;;;;;;;;;4816013;29;19932;-84
2022/09/28 04:49:57;;;;;;;;;;;;;;;;;;4825680;29;20046;-84
2022/09/28 04:52:42;;;;;;;;;;;;;;;;;;4779757;29;20012;-84
2022/09/28 04:55:09;;;;;;;;;;;;;;;;;;4765198;29;19980;-84
2022/09/28 04:57:36;;;;;;;;;;;;;;;;;;4750572;29;19933;-84
2022/09/28 05:00:04;;;;;;;;;;;;;;;;;;4759071;29;19933;-84
2022/09/28 05:02:34;;;;;;;;;;;;;;;;;;4773880;29;20054;-83
2022/09/28 05:05:03;;;;;;;;;;;;;;;;;;4761709;29;20114;-84
2022/09/28 05:07:48;;;;;;;;;;;;;;;;;;4764538;29;20136;-83
2022/09/28 05:10:20;;;;;;;;;;;;;;;;;;4767583;29;19933;-84
2022/09/28 05:12:56;;;;;;;;;;;;;;;;;;4774415;29;19956;-84
2022/09/28 05:15:22;;;;;;;;;;;;;;;;;;4758696;29;19953;-84
2022/09/28 05:17:59;;;;;;;;;;;;;;;;;;4759789;29;19956;-84
2022/09/28 05:20:26;;;;;;;;;;;;;;;;;;4760142;29;20036;-84
2022/09/28 05:22:54;;;;;;;;;;;;;;;;;;4756585;29;19992;-84
2022/09/28 05:25:37;;;;;;;;;;;;;;;;;;4734067;29;19938;-84
2022/09/28 05:28:11;;;;;;;;;;;;;;;;;;4748216;29;19934;-84
2022/09/28 05:30:38;;;;;;;;;;;;;;;;;;4731967;29;20394;-84
2022/09/28 05:33:06;;;;;;;;;;;;;;;;;;4739156;29;20488;-83
2022/09/28 05:35:52;;;;;;;;;;;;;;;;;;4731908;29;20751;-84
2022/09/28 05:38:18;;;;;;;;;;;;;;;;;;4742117;29;19940;-84
2022/09/28 05:40:45;;;;;;;;;;;;;;;;;;4709185;29;19933;-84
2022/09/28 05:43:16;;;;;;;;;;;;;;;;;;4707757;29;19944;-84
2022/09/28 05:45:43;;;;;;;;;;;;;;;;;;4710983;29;20275;-85
2022/09/28 05:48:12;;;;;;;;;;;;;;;;;;4728936;29;19929;-84
2022/09/28 05:50:41;;;;;;;;;;;;;;;;;;4744257;29;20026;-85
2022/09/28 05:53:14;;;;;;;;;;;;;;;;;;4731534;29;20540;-84
2022/09/28 05:55:45;;;;;;;;;;;;;;;;;;4733347;29;19933;-85
2022/09/28 05:58:31;;;;;;;;;;;;;;;;;;4736832;29;20373;-84
2022/09/28 06:00:58;;;;;;;;;;;;;;;;;;4718458;29;19933;-84
2022/09/28 06:03:25;;;;;;;;;;;;;;;;;;4794706;29;20156;-84
2022/09/28 06:05:52;;;;;;;;;;;;;;;;;;4789294;29;19982;-84
2022/09/28 06:08:18;;;;;;;;;;;;;;;;;;4805978;29;20023;-84
2022/09/28 06:10:48;;;;;;;;;;;;;;;;;;4818867;29;20018;-84
2022/09/28 06:13:15;;;;;;;;;;;;;;;;;;4803788;29;19932;-85
2022/09/28 06:15:47;;;;;;;;;;;;;;;;;;4802322;29;19985;-84
2022/09/28 06:18:18;;;;;;;;;;;;;;;;;;4819059;29;20675;-84
2022/09/28 06:20:45;;;;;;;;;;;;;;;;;;4823597;29;19939;-84
2022/09/28 06:23:15;;;;;;;;;;;;;;;;;;4831402;29;19931;-84
2022/09/28 06:25:41;;;;;;;;;;;;;;;;;;4813802;29;19951;-84
2022/09/28 06:28:23;;;;;;;;;;;;;;;;;;4834022;29;21620;-83
2022/09/28 06:31:05;;;;;;;;;;;;;;;;;;4836828;29;20295;-84
2022/09/28 06:33:32;;;;;;;;;;;;;;;;;;4842599;29;21519;-84
2022/09/28 06:35:59;;;;;;;;;;;;;;;;;;4827745;29;19935;-84
2022/09/28 06:38:27;;;;;;;;;;;;;;;;;;4825220;29;19975;-84
2022/09/28 06:40:54;;;;;;;;;;;;;;;;;;4833236;29;19927;-84
2022/09/28 06:43:21;;;;;;;;;;;;;;;;;;4823711;29;19942;-84
2022/09/28 06:45:48;;;;;;;;;;;;;;;;;;4813296;29;19924;-84
2022/09/28 06:48:15;;;;;;;;;;;;;;;;;;4841748;29;19936;-84
2022/09/28 06:50:43;;;;;;;;;;;;;;;;;;4839909;29;19932;-85
2022/09/28 06:53:10;;;;;;;;;;;;;;;;;;4828444;29;19940;-84
2022/09/28 06:55:37;;;;;;;;;;;;;;;;;;4826668;29;19971;-84
2022/09/28 06:58:03;;;;;;;;;;;;;;;;;;4838585;29;19939;-84
2022/09/28 07:00:31;;;;;;;;;;;;;;;;;;4836005;29;19932;-84
2022/09/28 07:02:59;;;;;;;;;;;;;;;;;;4827445;29;19948;-84
2022/09/28 07:05:29;;;;;;;;;;;;;;;;;;4838414;29;20076;-85
2022/09/28 07:07:55;;;;;;;;;;;;;;;;;;4824726;29;19930;-84
2022/09/28 07:10:22;;;;;;;;;;;;;;;;;;4841878;29;20047;-84
2022/09/28 07:12:49;;;;;;;;;;;;;;;;;;4841933;29;20021;-84
2022/09/28 07:15:20;;;;;;;;;;;;;;;;;;4832398;29;19967;-85
2022/09/28 07:18:02;;;;;;;;;;;;;;;;;;4841111;29;19936;-85
2022/09/28 07:20:39;;;;;;;;;;;;;;;;;;4852664;29;19927;-84
2022/09/28 07:23:07;;;;;;;;;;;;;;;;;;4825936;29;19946;-85
2022/09/28 07:25:46;;;;;;;;;;;;;;;;;;4827273;29;19924;-84
2022/09/28 07:28:14;;;;;;;;;;;;;;;;;;4850301;29;19923;-84
2022/09/28 07:30:44;;;;;;;;;;;;;;;;;;4836943;29;19934;-84
2022/09/28 07:33:13;;;;;;;;;;;;;;;;;;4862025;29;19930;-85
2022/09/28 07:35:49;;;;;;;;;;;;;;;;;;4837480;29;19928;-84
2022/09/28 07:38:17;;;;;;;;;;;;;;;;;;4845587;29;20387;-84
2022/09/28 07:43:30;;;;;;;;;;;;;;;;;;4845116;29;19932;-84
2022/09/28 07:46:12;;;;;;;;;;;;;;;;;;4843870;29;20450;-84
2022/09/28 07:51:17;;;;;;;;;;;;;;;;;;4828858;23;19941;-86
2022/09/28 07:53:43;;;;;;;;;;;;;;;;;;4784110;29;19928;-86
2022/09/28 07:56:10;;;;;;;;;;;;;;;;;;4771551;29;20281;-85
2022/09/28 07:58:36;;;;;;;;;;;;;;;;;;4781827;29;19925;-85
2022/09/28 08:01:02;;;;;;;;;;;;;;;;;;4782972;29;19929;-86
2022/09/28 08:03:28;;;;;;;;;;;;;;;;;;4804892;29;20487;-85
2022/09/28 08:05:55;;;;;;;;;;;;;;;;;;4786352;29;20031;-86
2022/09/28 08:08:20;;;;;;;;;;;;;;;;;;4769045;29;19925;-85
2022/09/28 08:10:46;;;;;;;;;;;;;;;;;;4762189;29;19924;-85
2022/09/28 08:13:13;;;;;;;;;;;;;;;;;;4775886;29;20030;-85
2022/09/28 08:15:41;;;;;;;;;;;;;;;;;;4794378;29;20463;-85
2022/09/28 08:18:07;;;;;;;;;;;;;;;;;;4782246;29;19925;-85
2022/09/28 08:23:19;;;;;;;;;;;;;;;;;;4794031;29;19933;-85
2022/09/28 08:25:47;;;;;;;;;;;;;;;;;;4780996;29;19935;-85
2022/09/28 08:28:14;;;;;;;;;;;;;;;;;;4787949;29;19933;-86
2022/09/28 08:30:40;;;;;;;;;;;;;;;;;;4788964;29;20043;-86
2022/09/28 08:33:06;;;;;;;;;;;;;;;;;;4797488;29;20400;-86
2022/09/28 08:35:32;;;;;;;;;;;;;;;;;;4781715;29;19925;-85
2022/09/28 08:38:02;;;;;;;;;;;;;;;;;;4788207;29;19929;-85
2022/09/28 08:40:28;;;;;;;;;;;;;;;;;;4805029;29;19966;-85
2022/09/28 08:42:54;;;;;;;;;;;;;;;;;;4761531;29;20351;-85
2022/09/28 08:45:20;;;;;;;;;;;;;;;;;;4783515;29;19981;-85
2022/09/28 08:50:30;;;;;;;;;;;;;;;;;;4792838;29;19937;-86
2022/09/28 08:52:56;;;;;;;;;;;;;;;;;;4789974;29;19928;-85
2022/09/28 08:55:22;;;;;;;;;;;;;;;;;;4791455;29;20035;-86
2022/09/28 08:57:48;;;;;;;;;;;;;;;;;;4789302;29;19925;-86
2022/09/28 09:00:14;;;;;;;;;;;;;;;;;;4795249;29;19937;-85
2022/09/28 09:02:41;;;;;;;;;;;;;;;;;;4789862;29;19944;-85
2022/09/28 09:05:07;;;;;;;;;;;;;;;;;;4807035;29;20019;-85
2022/09/28 09:07:33;;;;;;;;;;;;;;;;;;4797957;29;20016;-85
2022/09/28 09:09:59;;;;;;;;;;;;;;;;;;4787663;29;19936;-85
2022/09/28 09:12:25;;;;;;;;;;;;;;;;;;4800596;29;20015;-85
2022/09/28 09:14:51;;;;;;;;;;;;;;;;;;4791973;29;20308;-85
2022/09/28 09:17:17;;;;;;;;;;;;;;;;;;4789593;29;19979;-85
2022/09/28 09:19:43;;;;;;;;;;;;;;;;;;4774631;29;20029;-85
2022/09/28 09:22:10;;;;;;;;;;;;;;;;;;4795309;29;19929;-86
2022/09/28 09:24:36;;;;;;;;;;;;;;;;;;4782364;29;19964;-86
2022/09/28 09:27:02;;;;;;;;;;;;;;;;;;4778612;29;20032;-86
2022/09/28 09:29:28;;;;;;;;;;;;;;;;;;4782841;29;20415;-85
2022/09/28 09:31:54;;;;;;;;;;;;;;;;;;4778373;29;19956;-86
2022/09/28 09:34:20;;;;;;;;;;;;;;;;;;4782457;29;20032;-85
2022/09/28 09:36:49;;;;;;;;;;;;;;;;;;4773615;29;20388;-86
2022/09/28 09:39:15;;;;;;;;;;;;;;;;;;4764658;29;19933;-86
2022/09/28 09:41:41;;;;;;;;;;;;;;;;;;4778007;29;19933;-86
2022/09/28 09:44:07;;;;;;;;;;;;;;;;;;4782909;29;20394;-86
2022/09/28 09:46:33;;;;;;;;;;;;;;;;;;4784785;29;19939;-85
2022/09/28 09:48:59;;;;;;;;;;;;;;;;;;4766099;29;19933;-86
2022/09/28 09:51:25;;;;;;;;;;;;;;;;;;4782315;29;20381;-85
2022/09/28 09:53:51;;;;;;;;;;;;;;;;;;4763065;29;19932;-85
2022/09/28 09:56:17;;;;;;;;;;;;;;;;;;4768423;29;19948;-85
2022/09/28 09:58:45;;;;;;;;;;;;;;;;;;4778835;29;19929;-85
2022/09/28 10:01:10;;;;;;;;;;;;;;;;;;4787283;29;19936;-85
2022/09/28 10:03:36;;;;;;;;;;;;;;;;;;4770065;29;20304;-85
2022/09/28 10:06:02;;;;;;;;;;;;;;;;;;4795580;29;19928;-85
2022/09/28 10:08:28;;;;;;;;;;;;;;;;;;4786718;29;19967;-85
2022/09/28 10:10:54;;;;;;;;;;;;;;;;;;4767945;29;20372;-85
2022/09/28 10:13:20;;;;;;;;;;;;;;;;;;4770710;29;19936;-85
2022/09/28 10:15:47;;;;;;;;;;;;;;;;;;4765233;29;19933;-86
2022/09/28 10:18:14;;;;;;;;;;;;;;;;;;4797838;29;19976;-86
2022/09/28 10:20:43;;;;;;;;;;;;;;;;;;4785510;29;19925;-85
2022/09/28 10:23:10;;;;;;;;;;;;;;;;;;4783841;29;20020;-85
2022/09/28 10:25:36;;;;;;;;;;;;;;;;;;4783685;29;21433;-85
2022/09/28 10:28:02;;;;;;;;;;;;;;;;;;4779335;29;19929;-85
2022/09/28 10:30:28;;;;;;;;;;;;;;;;;;4769149;29;20423;-85
2022/09/28 10:32:58;;;;;;;;;;;;;;;;;;4782655;29;19924;-86
2022/09/28 10:35:24;;;;;;;;;;;;;;;;;;4781034;29;19929;-86
2022/09/28 10:37:51;;;;;;;;;;;;;;;;;;4766724;29;19926;-86
2022/09/28 10:40:17;;;;;;;;;;;;;;;;;;4787156;29;20285;-84
2022/09/28 10:42:43;;;;;;;;;;;;;;;;;;4766825;29;19933;-85
2022/09/28 10:45:09;;;;;;;;;;;;;;;;;;4771897;29;20524;-86
2022/09/28 10:47:35;;;;;;;;;;;;;;;;;;4786952;29;19981;-86
2022/09/28 10:50:01;;;;;;;;;;;;;;;;;;4784699;29;21832;-86
2022/09/28 10:52:27;;;;;;;;;;;;;;;;;;4782258;29;19939;-85
2022/09/28 10:54:52;;;;;;;;;;;;;;;;;;4779001;29;19929;-85
2022/09/28 10:57:18;;;;;;;;;;;;;;;;;;4781413;29;19941;-85
2022/09/28 10:59:45;;;;;;;;;;;;;;;;;;4768990;29;20287;-85
2022/09/28 11:02:11;;;;;;;;;;;;;;;;;;4782717;29;20000;-85
2022/09/28 11:04:37;;;;;;;;;;;;;;;;;;4782307;29;19964;-86
2022/09/28 11:07:03;;;;;;;;;;;;;;;;;;4781393;29;20069;-85
2022/09/28 11:09:29;;;;;;;;;;;;;;;;;;4771323;29;19985;-85
2022/09/28 11:11:55;;;;;;;;;;;;;;;;;;4766446;29;19925;-85
2022/09/28 11:14:21;;;;;;;;;;;;;;;;;;4791139;29;19925;-85
2022/09/28 11:16:47;;;;;;;;;;;;;;;;;;4777857;29;19932;-85
2022/09/28 11:19:13;;;;;;;;;;;;;;;;;;4791225;29;19967;-85
2022/09/28 11:21:39;;;;;;;;;;;;;;;;;;4804456;29;19925;-85
2022/09/28 11:24:05;;;;;;;;;;;;;;;;;;4775106;29;19937;-86
2022/09/28 11:26:31;;;;;;;;;;;;;;;;;;4772825;29;20877;-85
2022/09/28 11:28:57;;;;;;;;;;;;;;;;;;4769196;29;19933;-85
2022/09/28 11:31:23;;;;;;;;;;;;;;;;;;4772197;29;20458;-85
2022/09/28 11:33:49;;;;;;;;;;;;;;;;;;4765271;29;19929;-86
2022/09/28 11:36:18;;;;;;;;;;;;;;;;;;4797223;29;20337;-85
2022/09/28 11:38:46;;;;;;;;;;;;;;;;;;4767619;29;19956;-86
2022/09/28 11:41:12;;;;;;;;;;;;;;;;;;4782129;29;19929;-85
2022/09/28 11:43:38;;;;;;;;;;;;;;;;;;4778793;29;19937;-85
2022/09/28 11:46:04;;;;;;;;;;;;;;;;;;4779065;29;19929;-85
2022/09/28 11:48:30;;;;;;;;;;;;;;;;;;4781222;29;19933;-85
2022/09/28 11:50:55;;;;;;;;;;;;;;;;;;4778870;29;20388;-86
2022/09/28 11:53:22;;;;;;;;;;;;;;;;;;4785985;29;20361;-85
2022/09/28 11:55:48;;;;;;;;;;;;;;;;;;4762779;29;19929;-86
2022/09/28 11:58:14;;;;;;;;;;;;;;;;;;4786572;29;20455;-86
2022/09/28 12:00:40;;;;;;;;;;;;;;;;;;4776106;29;19929;-87
2022/09/28 12:03:07;;;;;;;;;;;;;;;;;;4773447;29;19990;-87
2022/09/28 12:05:35;;;;;;;;;;;;;;;;;;4774084;29;20029;-87
2022/09/28 12:08:01;;;;;;;;;;;;;;;;;;4784602;29;20353;-87
2022/09/28 12:10:27;;;;;;;;;;;;;;;;;;4779530;29;20015;-87
2022/09/28 12:12:53;;;;;;;;;;;;;;;;;;4775805;29;19932;-87
2022/09/28 12:15:19;;;;;;;;;;;;;;;;;;4794840;29;19933;-87
2022/09/28 12:17:45;;;;;;;;;;;;;;;;;;4792417;29;19932;-87
2022/09/28 12:20:11;;;;;;;;;;;;;;;;;;4776712;29;19964;-87
2022/09/28 12:22:37;;;;;;;;;;;;;;;;;;4794856;29;19940;-87
2022/09/28 12:25:03;;;;;;;;;;;;;;;;;;4786821;29;20372;-86
2022/09/28 12:27:30;;;;;;;;;;;;;;;;;;4774179;29;20377;-87
2022/09/28 12:29:56;;;;;;;;;;;;;;;;;;4768546;29;20270;-86
2022/09/28 12:32:22;;;;;;;;;;;;;;;;;;4795285;29;19921;-86
2022/09/28 12:34:48;;;;;;;;;;;;;;;;;;4772942;29;20395;-86
2022/09/28 12:37:14;;;;;;;;;;;;;;;;;;4791416;29;20360;-87
2022/09/28 12:39:45;;;;;;;;;;;;;;;;;;4773397;29;19933;-86
2022/09/28 12:42:13;;;;;;;;;;;;;;;;;;4792269;29;20265;-86
2022/09/28 12:44:40;;;;;;;;;;;;;;;;;;4794690;29;19936;-87
2022/09/28 12:47:08;;;;;;;;;;;;;;;;;;4777138;29;19929;-86
2022/09/28 12:49:34;;;;;;;;;;;;;;;;;;4787693;29;19972;-86
2022/09/28 12:52:01;;;;;;;;;;;;;;;;;;4768838;29;21374;-87
2022/09/28 12:54:27;;;;;;;;;;;;;;;;;;4793770;29;19986;-87
2022/09/28 12:56:53;;;;;;;;;;;;;;;;;;4785315;29;19961;-87
2022/09/28 12:59:22;;;;;;;;;;;;;;;;;;4786525;29;20083;-87
2022/09/28 13:01:48;;;;;;;;;;;;;;;;;;4791888;29;20308;-87
2022/09/28 13:04:14;;;;;;;;;;;;;;;;;;4789836;29;19963;-87
2022/09/28 13:06:40;;;;;;;;;;;;;;;;;;4788060;29;20040;-87
2022/09/28 13:09:06;;;;;;;;;;;;;;;;;;4792840;29;19928;-87
2022/09/28 13:11:32;;;;;;;;;;;;;;;;;;4778756;29;19932;-86
2022/09/28 13:14:00;;;;;;;;;;;;;;;;;;4786610;29;20342;-87
2022/09/28 13:16:27;;;;;;;;;;;;;;;;;;4771602;29;19928;-86
2022/09/28 13:18:53;;;;;;;;;;;;;;;;;;4786141;29;19939;-86
2022/09/28 13:21:18;;;;;;;;;;;;;;;;;;4784745;29;19933;-86
2022/09/28 13:23:44;;;;;;;;;;;;;;;;;;4770799;29;20624;-86
2022/09/28 13:26:13;;;;;;;;;;;;;;;;;;4788716;29;19936;-86
2022/09/28 13:28:39;;;;;;;;;;;;;;;;;;4789766;29;19929;-86
2022/09/28 13:31:06;;;;;;;;;;;;;;;;;;4757520;29;19933;-87
2022/09/28 13:33:34;;;;;;;;;;;;;;;;;;4760588;29;19981;-86
2022/09/28 13:36:02;;;;;;;;;;;;;;;;;;4783610;29;20966;-87
2022/09/28 13:39:04;;;;;;;;;;;;;;;;;;4793451;29;19932;-86
2022/09/28 13:48:34;;;;;;;;;;;;;;;;;;4807599;29;19971;-86
2022/09/28 14:01:26;;;;;;;;;;;;;;;;;;4911267;23;20081;-85
2022/09/28 14:03:52;;;;;;;;;;;;;;;;;;4807198;29;19940;-85
2022/09/28 14:06:18;;;;;;;;;;;;;;;;;;4806459;29;19935;-85
2022/09/28 14:08:44;;;;;;;;;;;;;;;;;;4797660;29;19928;-85
2022/09/28 14:11:10;;;;;;;;;;;;;;;;;;4806407;29;19972;-85
2022/09/28 14:13:36;;;;;;;;;;;;;;;;;;4803244;29;19973;-87
2022/09/28 14:16:03;;;;;;;;;;;;;;;;;;4795855;29;19932;-86
2022/09/28 14:18:30;;;;;;;;;;;;;;;;;;4786340;29;19976;-85
2022/09/28 14:20:55;;;;;;;;;;;;;;;;;;4806585;29;19929;-85
2022/09/28 14:23:21;;;;;;;;;;;;;;;;;;4790841;29;19993;-85
2022/09/28 14:25:47;;;;;;;;;;;;;;;;;;4766312;29;19925;-85
2022/09/28 14:28:14;;;;;;;;;;;;;;;;;;4781443;29;20000;-85
2022/09/28 14:30:43;;;;;;;;;;;;;;;;;;4803683;29;20023;-85
2022/09/28 14:33:09;;;;;;;;;;;;;;;;;;4815690;29;19933;-84
2022/09/28 14:35:35;;;;;;;;;;;;;;;;;;4803181;29;20005;-85
2022/09/28 14:43:30;;;;;;;;;;;;;;;;;;4796216;29;19964;-85
2022/09/28 14:45:56;;;;;;;;;;;;;;;;;;4786746;29;20011;-85
2022/09/28 14:48:22;;;;;;;;;;;;;;;;;;4798190;29;20358;-85
2022/09/28 14:50:48;;;;;;;;;;;;;;;;;;4806709;29;19925;-85
2022/09/28 14:53:14;;;;;;;;;;;;;;;;;;4802688;29;19989;-85
2022/09/28 14:55:40;;;;;;;;;;;;;;;;;;4791176;29;19925;-85
2022/09/28 14:58:06;;;;;;;;;;;;;;;;;;4797836;29;19929;-85
2022/09/28 15:00:32;;;;;;;;;;;;;;;;;;4795127;29;19982;-84
2022/09/28 15:02:58;;;;;;;;;;;;;;;;;;4794405;29;20404;-84
2022/09/28 15:05:24;;;;;;;;;;;;;;;;;;4797675;29;19932;-84
2022/09/28 15:07:53;;;;;;;;;;;;;;;;;;4799621;29;20018;-85
2022/09/28 15:10:19;;;;;;;;;;;;;;;;;;4787883;29;19936;-84
2022/09/28 15:12:46;;;;;;;;;;;;;;;;;;4769779;29;19929;-84
2022/09/28 15:15:11;;;;;;;;;;;;;;;;;;4789722;29;19929;-84
2022/09/28 15:17:38;;;;;;;;;;;;;;;;;;4788075;29;20416;-84
2022/09/28 15:20:04;;;;;;;;;;;;;;;;;;4769727;29;19933;-84
2022/09/28 15:22:31;;;;;;;;;;;;;;;;;;4791492;29;19935;-84
2022/09/28 15:24:58;;;;;;;;;;;;;;;;;;4768136;29;20401;-84
2022/09/28 15:27:24;;;;;;;;;;;;;;;;;;4778954;29;19925;-85
2022/09/28 15:29:50;;;;;;;;;;;;;;;;;;4784726;29;19977;-85
2022/09/28 15:32:16;;;;;;;;;;;;;;;;;;4786622;29;19994;-84
2022/09/28 15:34:50;;;;;;;;;;;;;;;;;;4780060;29;19929;-84
2022/09/28 15:37:16;;;;;;;;;;;;;;;;;;4777218;29;21674;-85
2022/09/28 15:39:47;;;;;;;;;;;;;;;;;;4786757;29;20609;-85
2022/09/28 15:42:13;;;;;;;;;;;;;;;;;;4787865;29;20401;-85
2022/09/28 15:44:39;;;;;;;;;;;;;;;;;;4778440;29;19940;-85
2022/09/28 15:47:05;;;;;;;;;;;;;;;;;;4782396;29;19979;-85
2022/09/28 15:49:31;;;;;;;;;;;;;;;;;;4782293;29;19929;-85
2022/09/28 15:52:01;;;;;;;;;;;;;;;;;;4763309;29;19977;-85
2022/09/28 15:54:28;;;;;;;;;;;;;;;;;;4774319;29;19932;-85
2022/09/28 15:56:54;;;;;;;;;;;;;;;;;;4775919;29;19933;-85
2022/09/28 15:59:20;;;;;;;;;;;;;;;;;;4782414;29;20384;-85
2022/09/28 16:01:46;;;;;;;;;;;;;;;;;;4756702;29;19937;-85
2022/09/28 16:04:12;;;;;;;;;;;;;;;;;;4770824;29;19959;-84
2022/09/28 16:06:38;;;;;;;;;;;;;;;;;;4771583;29;20384;-84
2022/09/28 16:09:04;;;;;;;;;;;;;;;;;;4766842;29;19947;-84
2022/09/28 16:11:30;;;;;;;;;;;;;;;;;;4777075;29;19975;-85
2022/09/28 16:13:56;;;;;;;;;;;;;;;;;;4771531;29;19939;-84
2022/09/28 16:16:22;;;;;;;;;;;;;;;;;;4773348;29;19929;-84
2022/09/28 16:18:48;;;;;;;;;;;;;;;;;;4772694;29;19931;-84
2022/09/28 16:21:14;;;;;;;;;;;;;;;;;;4775076;29;20393;-84
2022/09/28 16:23:40;;;;;;;;;;;;;;;;;;4775604;29;19941;-84
2022/09/28 16:26:07;;;;;;;;;;;;;;;;;;4768205;29;20013;-84
2022/09/28 16:28:33;;;;;;;;;;;;;;;;;;4776518;29;19937;-84
2022/09/28 16:30:59;;;;;;;;;;;;;;;;;;4767674;29;19994;-84
2022/09/28 16:33:25;;;;;;;;;;;;;;;;;;4762635;29;19933;-84
2022/09/28 16:35:51;;;;;;;;;;;;;;;;;;4761022;29;19941;-85
2022/09/28 16:38:17;;;;;;;;;;;;;;;;;;4769865;29;20013;-84
2022/09/28 16:40:45;;;;;;;;;;;;;;;;;;4766984;29;19977;-84
2022/09/28 16:43:11;;;;;;;;;;;;;;;;;;4781174;29;20301;-84
2022/09/28 16:45:42;;;;;;;;;;;;;;;;;;4761536;29;21801;-85
2022/09/28 16:48:08;;;;;;;;;;;;;;;;;;4775239;29;19944;-84
2022/09/28 16:50:34;;;;;;;;;;;;;;;;;;4777651;29;20567;-85
2022/09/28 16:55:44;;;;;;;;;;;;;;;;;;4770481;29;19937;-85
2022/09/28 16:58:11;;;;;;;;;;;;;;;;;;4782866;29;19975;-84
2022/09/28 17:00:37;;;;;;;;;;;;;;;;;;4784944;29;19925;-86
2022/09/28 17:03:04;;;;;;;;;;;;;;;;;;4778217;29;19940;-85
2022/09/28 17:05:30;;;;;;;;;;;;;;;;;;4800172;29;19973;-85
2022/09/28 17:07:55;;;;;;;;;;;;;;;;;;4798673;29;19933;-84
2022/09/28 17:10:21;;;;;;;;;;;;;;;;;;4804461;29;19939;-85
2022/09/28 17:12:48;;;;;;;;;;;;;;;;;;4786627;29;19932;-84
2022/09/28 17:15:14;;;;;;;;;;;;;;;;;;4795282;29;19932;-84
2022/09/28 17:17:43;;;;;;;;;;;;;;;;;;4803203;29;19932;-84
2022/09/28 17:20:08;;;;;;;;;;;;;;;;;;4805014;29;19928;-84
2022/09/28 17:22:34;;;;;;;;;;;;;;;;;;4804206;29;20516;-86
2022/09/28 17:25:00;;;;;;;;;;;;;;;;;;4798524;29;21259;-86
2022/09/28 17:27:27;;;;;;;;;;;;;;;;;;4811502;29;20034;-86
2022/09/28 17:29:52;;;;;;;;;;;;;;;;;;4801048;29;20719;-86
2022/09/28 17:32:18;;;;;;;;;;;;;;;;;;4817947;29;19928;-86